East Angus, Canada
Current Conditions -  °F | °C
As of 4:00 PM on Thursday 27 Nov 2014 (Local Time) from CYSC Reporting Station
Overcast Overcast  
Wind Chill: 25°   Ceiling: 2300
Heat Index: 25°   Visibility: 9mi
Dew Point: 19°   Wind: 3mph
Humidity: 80%   Direction: 280°W
Pressure: 30"   Gusts: NA
Location:  45.48°N, 71.67°W
Report Text: CYSC 272100Z AUTO 28003KT 9SM OVC023 M04/M07 A3000 RMK SLP174
Loading
Personal Weather Stations






























Interactive Weather Map New forecast layout! Learn more

10-Day Weather Forecast

Advertisements
Track Severe Weather on mobile